createdAt,value
2019-02-24T00:00:16.231Z,35.30
2019-02-24T00:02:42.813Z,35.80
2019-02-24T00:05:09.373Z,35.30
2019-02-24T00:07:35.839Z,35.70
2019-02-24T00:10:04.035Z,37.40
2019-02-24T00:12:30.512Z,36.00
2019-02-24T00:14:56.974Z,35.40
2019-02-24T00:17:23.444Z,35.10
2019-02-24T00:19:50.024Z,35.60
2019-02-24T00:22:16.891Z,35.70
2019-02-24T00:24:43.661Z,35.20
2019-02-24T00:27:10.405Z,35.40
2019-02-24T00:29:36.867Z,34.50
2019-02-24T00:32:03.451Z,36.10
2019-02-24T00:34:30.170Z,35.30
2019-02-24T00:36:56.657Z,35.80
2019-02-24T00:39:23.306Z,35.10
2019-02-24T00:41:49.965Z,35.30
2019-02-24T00:44:16.450Z,36.00
2019-02-24T00:46:43.022Z,35.90
2019-02-24T00:49:09.593Z,36.50
2019-02-24T00:51:36.145Z,36.60
2019-02-24T00:54:02.814Z,36.40
2019-02-24T00:56:29.273Z,36.80
2019-02-24T00:58:55.756Z,36.50
2019-02-24T01:01:22.220Z,37.70
2019-02-24T01:03:48.822Z,36.10
2019-02-24T01:06:15.388Z,35.60
2019-02-24T01:08:41.860Z,36.20
2019-02-24T01:11:08.312Z,36.20
2019-02-24T01:13:35.093Z,36.20
2019-02-24T01:16:01.811Z,36.00
2019-02-24T01:18:28.296Z,37.20
2019-02-24T01:20:54.783Z,36.30
2019-02-24T01:23:21.224Z,36.80
2019-02-24T01:25:47.878Z,36.30
2019-02-24T01:28:14.423Z,36.70
2019-02-24T01:30:40.909Z,36.90
2019-02-24T01:33:07.464Z,36.50
2019-02-24T01:35:34.053Z,36.70
2019-02-24T01:38:00.613Z,36.30
2019-02-24T01:40:27.099Z,36.40
2019-02-24T01:42:53.557Z,35.70
2019-02-24T01:45:20.028Z,36.50
2019-02-24T01:47:46.489Z,36.80
2019-02-24T01:50:13.251Z,36.50
2019-02-24T01:52:40.173Z,36.30
2019-02-24T01:55:06.856Z,36.60
2019-02-24T01:57:33.412Z,35.30
2019-02-24T01:59:59.908Z,35.30
2019-02-24T02:02:26.507Z,35.40
2019-02-24T02:04:52.945Z,36.00
2019-02-24T02:07:19.487Z,35.90
2019-02-24T02:09:45.932Z,35.50
2019-02-24T02:12:12.443Z,35.00
2019-02-24T02:14:39.046Z,36.00
2019-02-24T02:17:05.620Z,35.00
2019-02-24T02:19:32.605Z,35.60
2019-02-24T02:21:59.384Z,34.70
2019-02-24T02:24:26.196Z,35.30
2019-02-24T02:26:52.689Z,35.60
2019-02-24T02:29:19.141Z,34.80
2019-02-24T02:31:45.526Z,36.00
2019-02-24T02:34:11.989Z,35.30
2019-02-24T02:36:38.556Z,34.70
2019-02-24T02:39:05.592Z,33.70
2019-02-24T02:41:32.254Z,35.40
2019-02-24T02:43:58.949Z,34.80
2019-02-24T02:46:25.404Z,34.90
2019-02-24T02:48:51.801Z,35.10
2019-02-24T02:51:18.235Z,34.90
2019-02-24T02:53:44.999Z,33.90
2019-02-24T02:56:13.159Z,35.50
2019-02-24T02:58:39.643Z,35.20
2019-02-24T03:01:06.291Z,35.30
2019-02-24T03:03:33.053Z,35.20
2019-02-24T03:06:19.572Z,35.80
2019-02-24T03:08:47.563Z,35.50
2019-02-24T03:11:15.168Z,35.40
2019-02-24T03:13:41.600Z,35.30
2019-02-24T03:16:08.060Z,35.00
2019-02-24T03:18:34.535Z,35.10
2019-02-24T03:21:01.002Z,35.20
2019-02-24T03:23:27.492Z,35.30
2019-02-24T03:25:53.965Z,35.00
2019-02-24T03:28:20.451Z,34.40
2019-02-24T03:30:46.894Z,34.80
2019-02-24T03:33:13.379Z,35.10
2019-02-24T03:35:39.833Z,34.80
2019-02-24T03:38:06.270Z,34.30
2019-02-24T03:40:32.859Z,34.80
2019-02-24T03:42:59.517Z,34.50
2019-02-24T03:45:26.008Z,34.10
2019-02-24T03:47:52.436Z,34.50
2019-02-24T03:50:18.924Z,34.90
2019-02-24T03:52:45.459Z,34.40
2019-02-24T03:55:12.040Z,35.00
2019-02-24T03:57:38.505Z,35.00
2019-02-24T04:00:05.589Z,34.90
2019-02-24T04:02:32.233Z,34.50
2019-02-24T04:04:59.099Z,34.70
2019-02-24T04:07:25.659Z,34.30
2019-02-24T04:09:52.238Z,34.70
2019-02-24T04:12:18.688Z,34.60
2019-02-24T04:14:45.249Z,34.30
2019-02-24T04:17:11.707Z,33.90
2019-02-24T04:19:38.321Z,34.10
2019-02-24T04:22:04.725Z,33.80
2019-02-24T04:24:31.167Z,33.40
2019-02-24T04:26:57.652Z,34.10
2019-02-24T04:29:25.202Z,33.30
2019-02-24T04:31:51.882Z,34.20
2019-02-24T04:34:18.335Z,33.90
2019-02-24T04:36:44.814Z,33.50
2019-02-24T04:39:11.274Z,33.50
2019-02-24T04:41:37.751Z,34.00
2019-02-24T04:44:04.201Z,33.70
2019-02-24T04:46:30.784Z,34.60
2019-02-24T04:48:57.428Z,34.50
2019-02-24T04:51:23.801Z,34.20
2019-02-24T04:53:50.157Z,34.40
2019-02-24T04:56:16.623Z,34.30
2019-02-24T04:58:42.978Z,34.70
2019-02-24T05:01:09.456Z,34.30
2019-02-24T05:03:35.914Z,34.70
2019-02-24T05:06:02.745Z,33.80
2019-02-24T05:08:29.472Z,34.70
2019-02-24T05:10:55.930Z,34.60
2019-02-24T05:13:22.418Z,34.60
2019-02-24T05:15:48.860Z,35.00
2019-02-24T05:18:15.319Z,35.20
2019-02-24T05:20:42.056Z,35.60
2019-02-24T05:23:08.523Z,36.50
2019-02-24T05:25:34.991Z,37.00
2019-02-24T05:28:01.707Z,35.50
2019-02-24T05:30:28.286Z,36.30
2019-02-24T05:32:54.775Z,36.80
2019-02-24T05:35:21.233Z,36.90
2019-02-24T05:37:47.712Z,36.10
2019-02-24T05:40:14.157Z,36.60
2019-02-24T05:42:42.499Z,36.10
2019-02-24T05:45:09.074Z,36.60
2019-02-24T05:47:35.434Z,37.40
2019-02-24T05:50:02.108Z,35.00
2019-02-24T05:52:28.561Z,36.50
2019-02-24T05:54:55.045Z,37.00
2019-02-24T05:57:21.479Z,35.60
2019-02-24T05:59:55.037Z,34.70
2019-02-24T06:02:16.265Z,34.70
2019-02-24T06:04:42.733Z,35.00
2019-02-24T06:07:09.182Z,34.40
2019-02-24T06:09:35.756Z,34.00
2019-02-24T06:12:02.203Z,34.00
2019-02-24T06:14:28.652Z,34.00
2019-02-24T06:16:55.162Z,34.00
2019-02-24T06:19:21.594Z,32.90
2019-02-24T06:21:48.091Z,32.80
2019-02-24T06:24:14.551Z,32.90
2019-02-24T06:26:41.284Z,32.80
2019-02-24T06:29:07.735Z,33.00
2019-02-24T06:31:34.214Z,33.30
2019-02-24T06:34:00.651Z,33.00
2019-02-24T06:36:27.137Z,32.50
2019-02-24T06:38:53.593Z,32.10
2019-02-24T06:41:20.073Z,32.50
2019-02-24T06:43:46.525Z,32.10
2019-02-24T06:46:13.109Z,32.40
2019-02-24T06:48:39.557Z,32.00
2019-02-24T06:51:07.836Z,32.50
2019-02-24T06:53:34.292Z,32.60
2019-02-24T06:56:01.043Z,33.00
2019-02-24T06:58:27.584Z,32.00
2019-02-24T07:00:53.937Z,32.80
2019-02-24T07:03:20.416Z,32.80
2019-02-24T07:05:47.261Z,33.20
2019-02-24T07:08:13.736Z,33.30
2019-02-24T07:10:40.384Z,33.60
2019-02-24T07:13:06.872Z,33.70
2019-02-24T07:15:33.312Z,33.80
2019-02-24T07:17:59.884Z,33.20
2019-02-24T07:20:26.598Z,33.00
2019-02-24T07:22:53.096Z,33.10
2019-02-24T07:25:19.548Z,33.00
2019-02-24T07:27:46.017Z,31.70
2019-02-24T07:30:12.729Z,32.30
2019-02-24T07:32:39.087Z,32.30
2019-02-24T07:35:05.766Z,31.00
2019-02-24T07:37:32.221Z,32.10
2019-02-24T07:39:58.695Z,31.40
2019-02-24T07:42:25.414Z,31.30
2019-02-24T07:44:51.906Z,30.50
2019-02-24T07:47:18.360Z,30.30
2019-02-24T07:49:44.845Z,30.30
2019-02-24T07:52:11.297Z,29.60
2019-02-24T07:54:37.775Z,29.20
2019-02-24T07:57:04.493Z,29.30
2019-02-24T07:59:30.968Z,29.00
2019-02-24T08:01:57.424Z,28.60
2019-02-24T08:04:23.900Z,28.20
2019-02-24T08:06:50.363Z,28.00
2019-02-24T08:09:16.806Z,28.40
2019-02-24T08:11:43.285Z,28.00
2019-02-24T08:14:09.886Z,27.40
2019-02-24T08:16:36.357Z,26.30
2019-02-24T08:19:02.901Z,25.50
2019-02-24T08:21:29.512Z,25.00
2019-02-24T08:23:55.975Z,24.70
2019-02-24T08:26:22.448Z,23.80
2019-02-24T08:28:49.016Z,22.80
2019-02-24T08:31:15.584Z,23.30
2019-02-24T08:33:42.153Z,23.00
2019-02-24T08:36:08.734Z,21.20
2019-02-24T08:38:35.453Z,20.00
2019-02-24T08:41:02.015Z,19.70
2019-02-24T08:43:28.503Z,18.40
2019-02-24T08:45:55.175Z,17.90
2019-02-24T08:48:21.808Z,17.90
2019-02-24T08:50:48.287Z,18.40
2019-02-24T08:53:14.823Z,19.10
2019-02-24T08:55:41.296Z,18.00
2019-02-24T08:58:07.756Z,17.40
2019-02-24T09:00:34.406Z,16.90
2019-02-24T09:03:00.924Z,16.20
2019-02-24T09:05:27.744Z,15.00
2019-02-24T09:07:54.139Z,14.40
2019-02-24T09:10:20.681Z,13.20
2019-02-24T09:12:47.441Z,12.50
2019-02-24T09:15:14.100Z,12.50
2019-02-24T09:17:40.769Z,12.10
2019-02-24T09:20:09.834Z,13.00
2019-02-24T09:22:36.331Z,12.60
2019-02-24T09:25:03.516Z,12.20
2019-02-24T09:27:30.332Z,10.90
2019-02-24T09:29:56.781Z,10.30
2019-02-24T09:32:23.275Z,11.40
2019-02-24T09:34:49.746Z,11.70
2019-02-24T09:37:16.327Z,11.00
2019-02-24T09:39:42.763Z,11.30
2019-02-24T09:42:09.357Z,10.00
2019-02-24T09:44:35.820Z,10.10
2019-02-24T09:47:02.403Z,9.90
2019-02-24T09:49:28.965Z,9.70
2019-02-24T09:51:55.659Z,8.20
2019-02-24T09:54:22.155Z,8.90
2019-02-24T09:56:48.744Z,9.40
2019-02-24T09:59:15.439Z,9.10
2019-02-24T10:01:42.017Z,8.20
2019-02-24T10:04:09.118Z,9.20
2019-02-24T10:06:38.480Z,8.20
2019-02-24T10:09:05.223Z,7.50
2019-02-24T10:11:31.709Z,6.70
2019-02-24T10:13:58.169Z,7.70
2019-02-24T10:16:24.660Z,7.90
2019-02-24T10:18:51.157Z,7.20
2019-02-24T10:21:17.603Z,6.90
2019-02-24T10:23:44.084Z,6.10
2019-02-24T10:26:10.813Z,7.40
2019-02-24T10:28:37.292Z,7.00
2019-02-24T10:31:03.952Z,6.90
2019-02-24T10:33:30.704Z,7.50
2019-02-24T10:35:57.266Z,7.00
2019-02-24T10:38:23.782Z,5.30
2019-02-24T10:40:50.390Z,4.40
2019-02-24T10:43:16.866Z,4.70
2019-02-24T10:45:43.319Z,5.00
2019-02-24T10:48:14.100Z,4.30
2019-02-24T10:50:38.261Z,4.60
2019-02-24T10:53:04.762Z,4.60
2019-02-24T10:55:31.519Z,3.60
2019-02-24T10:57:58.245Z,3.20
2019-02-24T11:00:25.023Z,3.30
2019-02-24T11:02:51.475Z,3.10
2019-02-24T11:05:18.152Z,3.50
2019-02-24T11:07:44.820Z,3.10
2019-02-24T11:10:11.488Z,2.50
2019-02-24T11:12:37.889Z,3.40
2019-02-24T11:15:06.556Z,4.50
2019-02-24T11:17:33.124Z,4.10
2019-02-24T11:19:59.984Z,2.50
2019-02-24T11:22:26.690Z,2.50
2019-02-24T11:24:53.374Z,3.00
2019-02-24T11:27:19.825Z,2.00
2019-02-24T11:29:46.423Z,1.20
2019-02-24T11:32:12.979Z,1.10
2019-02-24T11:34:39.576Z,1.00
2019-02-24T11:37:06.121Z,2.50
2019-02-24T11:39:32.593Z,1.50
2019-02-24T11:41:59.152Z,1.90
2019-02-24T11:44:25.601Z,1.90
2019-02-24T11:46:52.085Z,1.60
2019-02-24T11:49:18.529Z,1.00
2019-02-24T11:51:45.009Z,1.30
2019-02-24T11:54:11.821Z,1.00
2019-02-24T11:56:39.308Z,1.00
2019-02-24T11:59:05.958Z,1.00
2019-02-24T12:01:32.683Z,1.00
2019-02-24T12:03:59.044Z,1.00
2019-02-24T12:06:25.815Z,1.00
2019-02-24T12:08:52.560Z,1.00
2019-02-24T12:11:19.137Z,1.00
2019-02-24T12:13:45.697Z,1.20
2019-02-24T12:16:12.193Z,1.00
2019-02-24T12:18:39.070Z,1.00
2019-02-24T12:21:05.562Z,1.00
2019-02-24T12:23:32.033Z,1.10
2019-02-24T12:25:58.553Z,1.00
2019-02-24T12:28:25.108Z,1.00
2019-02-24T12:30:51.560Z,1.00
2019-02-24T12:33:18.164Z,1.00
2019-02-24T12:35:45.001Z,1.00
2019-02-24T12:38:11.579Z,1.00
2019-02-24T12:40:38.468Z,1.00
2019-02-24T12:43:04.875Z,1.00
2019-02-24T12:45:31.441Z,1.00
2019-02-24T12:47:58.172Z,1.00
2019-02-24T12:50:24.922Z,1.00
2019-02-24T12:52:51.636Z,1.00
2019-02-24T12:55:18.401Z,1.00
2019-02-24T12:57:44.960Z,1.00
2019-02-24T13:00:20.785Z,1.00
2019-02-24T13:02:47.452Z,1.00
2019-02-24T13:05:14.026Z,1.00
2019-02-24T13:07:40.608Z,1.00
2019-02-24T13:10:09.902Z,1.00
2019-02-24T13:12:36.544Z,1.00
2019-02-24T13:15:04.433Z,1.00
2019-02-24T13:17:30.997Z,1.00
2019-02-24T13:19:57.718Z,1.00
2019-02-24T13:22:24.264Z,1.00
2019-02-24T13:24:50.766Z,1.00
2019-02-24T13:27:17.330Z,1.00
2019-02-24T13:29:43.813Z,1.00
2019-02-24T13:32:14.869Z,1.00
2019-02-24T13:34:38.891Z,1.00
2019-02-24T13:37:05.355Z,1.00
2019-02-24T13:39:32.327Z,1.00
2019-02-24T13:41:58.692Z,1.00
2019-02-24T13:44:25.466Z,1.00
2019-02-24T13:46:51.920Z,1.00
2019-02-24T13:49:18.503Z,1.00
2019-02-24T13:51:45.333Z,1.00
2019-02-24T13:54:11.818Z,1.00
2019-02-24T13:56:38.275Z,1.00
2019-02-24T13:59:04.881Z,1.00
2019-02-24T14:01:31.721Z,1.00
2019-02-24T14:03:58.191Z,1.00
2019-02-24T14:06:24.804Z,1.00
2019-02-24T14:08:51.628Z,1.00
2019-02-24T14:11:18.112Z,1.00
2019-02-24T14:13:44.672Z,1.00
2019-02-24T14:16:11.256Z,1.00
2019-02-24T14:18:37.820Z,1.00
2019-02-24T14:21:04.554Z,1.00
2019-02-24T14:23:31.363Z,1.00
2019-02-24T14:25:57.965Z,1.00
2019-02-24T14:28:24.699Z,1.00
2019-02-24T14:30:51.179Z,1.00
2019-02-24T14:33:17.649Z,1.00
2019-02-24T14:35:44.135Z,1.00
2019-02-24T14:38:10.872Z,1.00
2019-02-24T14:40:37.396Z,1.00
2019-02-24T14:43:04.059Z,1.00
2019-02-24T14:45:30.638Z,1.00
2019-02-24T14:47:57.101Z,1.00
2019-02-24T14:50:23.561Z,1.00
2019-02-24T14:52:50.249Z,1.00
2019-02-24T14:55:16.818Z,1.00
2019-02-24T14:57:43.516Z,1.00
2019-02-24T15:00:13.352Z,1.00
2019-02-24T15:02:42.690Z,1.00
2019-02-24T15:05:13.270Z,1.00
2019-02-24T15:07:39.953Z,1.00
2019-02-24T15:10:09.441Z,1.00
2019-02-24T15:12:36.122Z,1.00
2019-02-24T15:15:09.076Z,1.00
2019-02-24T15:17:35.667Z,1.00
2019-02-24T15:20:04.652Z,1.00
2019-02-24T15:22:31.125Z,1.00
2019-02-24T15:24:57.860Z,1.00
2019-02-24T15:27:24.264Z,1.00
2019-02-24T15:29:50.768Z,1.00
2019-02-24T15:32:17.605Z,1.00
2019-02-24T15:34:44.065Z,1.00
2019-02-24T15:37:10.539Z,1.00
2019-02-24T15:39:37.095Z,1.00
2019-02-24T15:42:03.752Z,1.00
2019-02-24T15:44:30.229Z,1.00
2019-02-24T15:46:56.690Z,1.00
2019-02-24T15:49:23.442Z,1.00
2019-02-24T15:51:50.206Z,1.00
2019-02-24T15:54:16.804Z,1.00
2019-02-24T15:56:43.660Z,1.00
2019-02-24T15:59:10.596Z,1.00
2019-02-24T16:01:36.955Z,1.00
2019-02-24T16:04:03.539Z,1.00
2019-02-24T16:06:37.029Z,1.00
2019-02-24T16:08:58.272Z,2.00
2019-02-24T16:11:24.827Z,1.30
2019-02-24T16:13:51.314Z,1.60
2019-02-24T16:16:17.817Z,1.80
2019-02-24T16:18:44.296Z,1.40
2019-02-24T16:21:10.876Z,1.60
2019-02-24T16:23:37.474Z,1.70
2019-02-24T16:26:04.209Z,2.50
2019-02-24T16:28:30.568Z,3.00
2019-02-24T16:30:56.951Z,3.90
2019-02-24T16:33:23.402Z,3.30
2019-02-24T16:35:49.900Z,4.90
2019-02-24T16:38:16.457Z,3.80
2019-02-24T16:40:42.945Z,4.20
2019-02-24T16:43:09.595Z,3.70
2019-02-24T16:45:36.076Z,5.30
2019-02-24T16:48:02.728Z,5.40
2019-02-24T16:50:29.199Z,6.10
2019-02-24T16:52:55.561Z,5.80
2019-02-24T16:55:22.248Z,6.40
2019-02-24T16:57:48.692Z,6.90
2019-02-24T17:00:20.404Z,6.40
2019-02-24T17:02:47.065Z,6.70
2019-02-24T17:05:13.757Z,6.30
2019-02-24T17:07:40.320Z,7.70
2019-02-24T17:10:10.327Z,7.30
2019-02-24T17:12:36.906Z,8.00
2019-02-24T17:15:06.041Z,7.40
2019-02-24T17:17:32.517Z,8.00
2019-02-24T17:19:59.010Z,7.70
2019-02-24T17:22:25.600Z,7.40
2019-02-24T17:24:52.209Z,8.30
2019-02-24T17:27:18.905Z,7.20
2019-02-24T17:29:45.384Z,6.90
2019-02-24T17:32:12.180Z,6.40
2019-02-24T17:34:38.650Z,7.20
2019-02-24T17:37:05.448Z,8.60
2019-02-24T17:39:32.027Z,8.90
2019-02-24T17:41:58.532Z,8.60
2019-02-24T17:44:24.990Z,10.60
2019-02-24T17:46:51.588Z,9.70
2019-02-24T17:49:18.352Z,9.80
2019-02-24T17:51:45.126Z,10.20
2019-02-24T17:54:11.705Z,9.90
2019-02-24T17:56:38.186Z,10.70
2019-02-24T17:59:04.744Z,10.50
2019-02-24T18:01:31.232Z,10.30
2019-02-24T18:03:57.705Z,9.90
2019-02-24T18:06:24.299Z,10.60
2019-02-24T18:08:54.336Z,10.50
2019-02-24T18:11:19.235Z,11.20
2019-02-24T18:13:45.813Z,11.50
2019-02-24T18:16:12.308Z,11.20
2019-02-24T18:18:38.876Z,12.40
2019-02-24T18:21:06.624Z,13.10
2019-02-24T18:23:33.141Z,12.70
2019-02-24T18:25:59.517Z,13.20
2019-02-24T18:28:26.124Z,12.50
2019-02-24T18:30:52.867Z,12.00
2019-02-24T18:33:19.361Z,12.80
2019-02-24T18:35:45.818Z,12.70
2019-02-24T18:38:12.311Z,13.70
2019-02-24T18:40:38.871Z,13.90
2019-02-24T18:43:05.371Z,13.10
2019-02-24T18:45:31.938Z,14.50
2019-02-24T18:47:58.690Z,14.60
2019-02-24T18:50:25.165Z,14.80
2019-02-24T18:52:51.639Z,15.00
2019-02-24T18:55:18.089Z,14.60
2019-02-24T18:57:44.680Z,14.10
2019-02-24T19:00:21.380Z,12.50
2019-02-24T19:02:47.945Z,12.80
2019-02-24T19:05:14.789Z,12.30
2019-02-24T19:07:41.594Z,11.60
2019-02-24T19:10:16.981Z,11.80
2019-02-24T19:12:43.677Z,11.70
2019-02-24T19:15:13.137Z,11.80
2019-02-24T19:17:39.833Z,12.40
2019-02-24T19:20:09.638Z,11.70
2019-02-24T19:22:36.123Z,11.70
2019-02-24T19:25:04.357Z,11.00
2019-02-24T19:27:30.965Z,10.80
2019-02-24T19:29:57.818Z,10.60
2019-02-24T19:32:24.326Z,10.00
2019-02-24T19:34:50.807Z,10.00
2019-02-24T19:37:17.400Z,9.60
2019-02-24T19:39:44.168Z,9.80
2019-02-24T19:42:10.732Z,10.10
2019-02-24T19:44:37.231Z,10.60
2019-02-24T19:47:03.884Z,10.80
2019-02-24T19:49:30.552Z,10.80
2019-02-24T19:51:57.019Z,10.90
2019-02-24T19:54:23.508Z,10.60
2019-02-24T19:56:50.274Z,11.50
2019-02-24T19:59:16.708Z,11.30
2019-02-24T20:01:43.281Z,11.60
2019-02-24T20:04:15.785Z,12.30
2019-02-24T20:06:38.411Z,12.30
2019-02-24T20:09:05.264Z,12.80
2019-02-24T20:11:31.665Z,12.60
2019-02-24T20:13:58.259Z,12.80
2019-02-24T20:16:24.740Z,12.70
2019-02-24T20:18:51.324Z,12.20
2019-02-24T20:21:17.805Z,12.50
2019-02-24T20:23:44.372Z,12.20
2019-02-24T20:26:10.868Z,12.30
2019-02-24T20:28:37.367Z,11.30
2019-02-24T20:31:03.970Z,12.10
2019-02-24T20:33:30.713Z,12.50
2019-02-24T20:35:57.218Z,12.60
2019-02-24T20:38:23.694Z,13.10
2019-02-24T20:40:50.193Z,13.40
2019-02-24T20:43:16.669Z,12.60
2019-02-24T20:45:43.178Z,13.50
2019-02-24T20:48:09.758Z,13.40
2019-02-24T20:50:36.330Z,13.20
2019-02-24T20:53:03.092Z,14.40
2019-02-24T20:55:29.580Z,13.50
2019-02-24T20:57:56.140Z,14.50
2019-02-24T21:00:25.297Z,15.00
2019-02-24T21:02:52.244Z,15.40
2019-02-24T21:05:18.816Z,17.60
2019-02-24T21:07:45.368Z,15.10
2019-02-24T21:10:12.289Z,16.00
2019-02-24T21:12:38.734Z,15.70
2019-02-24T21:15:08.912Z,15.90
2019-02-24T21:17:35.724Z,16.60
2019-02-24T21:20:06.086Z,17.80
2019-02-24T21:22:32.781Z,17.80
2019-02-24T21:24:59.234Z,17.80
2019-02-24T21:27:25.713Z,18.30
2019-02-24T21:29:52.211Z,18.50
2019-02-24T21:32:18.809Z,18.70
2019-02-24T21:34:45.376Z,18.90
2019-02-24T21:37:11.853Z,18.70
2019-02-24T21:39:38.309Z,19.70
2019-02-24T21:42:04.886Z,20.20
2019-02-24T21:44:31.480Z,21.60
2019-02-24T21:46:57.947Z,21.80
2019-02-24T21:49:24.497Z,22.10
2019-02-24T21:51:50.948Z,21.90
2019-02-24T21:54:17.431Z,20.70
2019-02-24T21:56:44.086Z,19.80
2019-02-24T21:59:10.606Z,21.70
2019-02-24T22:01:37.030Z,19.60
2019-02-24T22:04:03.616Z,20.60
2019-02-24T22:06:30.163Z,18.80
2019-02-24T22:08:56.553Z,19.90
2019-02-24T22:11:23.004Z,20.10
2019-02-24T22:13:49.503Z,20.00
2019-02-24T22:16:16.068Z,19.50
2019-02-24T22:18:42.568Z,17.60
2019-02-24T22:21:09.111Z,20.20
2019-02-24T22:23:35.767Z,20.10
2019-02-24T22:26:02.327Z,18.50
2019-02-24T22:28:28.899Z,19.50
2019-02-24T22:30:55.361Z,18.50
2019-02-24T22:33:22.117Z,17.40
2019-02-24T22:35:48.678Z,18.00
2019-02-24T22:38:15.142Z,19.10
2019-02-24T22:40:41.714Z,18.90
2019-02-24T22:43:08.168Z,18.10
2019-02-24T22:45:34.744Z,18.70
2019-02-24T22:48:03.076Z,18.60
2019-02-24T22:50:29.658Z,19.30
2019-02-24T22:52:56.227Z,20.00
2019-02-24T22:55:22.805Z,19.60
2019-02-24T22:57:49.637Z,19.60
2019-02-24T23:00:30.940Z,19.60
2019-02-24T23:02:57.698Z,19.90
2019-02-24T23:05:24.562Z,19.30
2019-02-24T23:07:51.116Z,18.80
2019-02-24T23:10:17.612Z,18.90
2019-02-24T23:12:44.061Z,19.50
2019-02-24T23:15:10.745Z,20.00
2019-02-24T23:17:37.238Z,20.00
2019-02-24T23:20:05.957Z,20.70
2019-02-24T23:22:32.387Z,20.50
2019-02-24T23:24:58.877Z,20.80
2019-02-24T23:27:25.431Z,21.30
2019-02-24T23:29:51.887Z,21.30
2019-02-24T23:32:18.356Z,22.70
2019-02-24T23:34:44.807Z,22.10
2019-02-24T23:37:11.381Z,22.50
2019-02-24T23:39:37.844Z,22.30
2019-02-24T23:42:04.539Z,22.70
2019-02-24T23:44:30.984Z,22.90
2019-02-24T23:46:57.364Z,23.30
2019-02-24T23:49:24.071Z,23.20
2019-02-24T23:51:50.464Z,24.00
2019-02-24T23:54:17.012Z,23.30
2019-02-24T23:56:43.583Z,23.90
2019-02-24T23:59:09.962Z,22.80
